createdAt,value
2019-04-04T00:02:17.101Z,1.54
2019-04-04T00:07:24.494Z,1.62
2019-04-04T00:12:33.358Z,2.76
2019-04-04T00:17:42.006Z,2.05
2019-04-04T00:22:50.833Z,3.27
2019-04-04T00:27:59.474Z,2.46
2019-04-04T00:33:08.323Z,2.02
2019-04-04T00:38:17.098Z,1.64
2019-04-04T00:43:25.887Z,2.21
2019-04-04T00:48:34.802Z,1.61
2019-04-04T00:53:43.583Z,1.19
2019-04-04T00:58:52.554Z,2.15
2019-04-04T01:04:00.949Z,1.96
2019-04-04T01:09:13.213Z,1.56
2019-04-04T01:14:17.004Z,2.21
2019-04-04T01:19:25.672Z,1.31
2019-04-04T01:24:34.490Z,1.89
2019-04-04T01:29:43.188Z,3.46
2019-04-04T01:34:52.150Z,2.48
2019-04-04T01:40:02.065Z,1.88
2019-04-04T01:45:08.514Z,2.10
2019-04-04T01:50:17.151Z,3.14
2019-04-04T01:55:26.014Z,3.10
2019-04-04T02:01:40.670Z,2.60
2019-04-04T02:06:49.523Z,1.50
2019-04-04T02:11:58.277Z,1.23
2019-04-04T02:17:07.370Z,2.26
2019-04-04T02:22:16.040Z,1.97
2019-04-04T02:27:24.880Z,1.21
2019-04-04T02:32:33.529Z,2.35
2019-04-04T02:37:42.369Z,2.93
2019-04-04T02:42:54.157Z,3.22
2019-04-04T02:47:59.456Z,2.79
2019-04-04T02:53:08.066Z,1.55
2019-04-04T02:58:16.914Z,1.01
2019-04-04T03:03:25.568Z,2.17
2019-04-04T03:08:36.768Z,2.56
2019-04-04T03:13:42.578Z,1.94
2019-04-04T03:18:51.386Z,0.78
2019-04-04T03:24:00.040Z,2.18
2019-04-04T03:29:10.631Z,1.66
2019-04-04T03:34:17.006Z,1.74
2019-04-04T03:39:25.814Z,1.89
2019-04-04T03:44:34.486Z,0.86
2019-04-04T03:49:43.295Z,0.84
2019-04-04T03:54:54.991Z,0.10
2019-04-04T04:00:00.395Z,1.71
2019-04-04T04:05:09.378Z,0.46
2019-04-04T04:10:18.502Z,0.88
2019-04-04T04:15:30.366Z,0.32
2019-04-04T04:20:37.509Z,0.15
2019-04-04T04:25:43.766Z,0.22
2019-04-04T04:30:52.581Z,0.11
2019-04-04T04:36:01.254Z,0.29
2019-04-04T04:41:10.079Z,0.60
2019-04-04T04:46:18.748Z,0.10
2019-04-04T04:51:27.554Z,0.28
2019-04-04T04:56:36.209Z,0.14
2019-04-04T05:01:45.029Z,0.21
2019-04-04T05:06:53.718Z,0.28
2019-04-04T05:12:02.526Z,0.11
2019-04-04T05:17:11.513Z,0.10
2019-04-04T05:22:20.300Z,0.12
2019-04-04T05:27:28.980Z,0.47
2019-04-04T05:32:37.752Z,0.11
2019-04-04T05:37:46.377Z,0.18
2019-04-04T05:42:55.427Z,0.15
2019-04-04T05:48:04.109Z,0.11
2019-04-04T05:53:13.030Z,0.15
2019-04-04T05:58:22.572Z,0.16
2019-04-04T06:03:30.190Z,0.40
2019-04-04T06:08:42.417Z,0.27
2019-04-04T06:13:47.189Z,0.20
2019-04-04T06:18:55.876Z,0.14
2019-04-04T06:24:04.653Z,0.24
2019-04-04T06:29:15.157Z,0.04
2019-04-04T06:34:24.027Z,0.31
2019-04-04T06:39:30.094Z,1.99
2019-04-04T06:44:38.904Z,2.43
2019-04-04T06:49:47.587Z,2.21
2019-04-04T06:54:57.468Z,1.53
2019-04-04T07:00:04.571Z,0.95
2019-04-04T07:05:13.466Z,1.72
2019-04-04T07:10:22.176Z,0.57
2019-04-04T07:15:31.034Z,0.95
2019-04-04T07:20:39.705Z,0.75
2019-04-04T07:25:48.527Z,0.71
2019-04-04T07:30:59.311Z,1.27
2019-04-04T07:36:06.843Z,1.97
2019-04-04T07:41:15.863Z,1.58
2019-04-04T07:46:24.691Z,1.44
2019-04-04T07:51:33.358Z,0.82
2019-04-04T07:56:43.517Z,0.81
2019-04-04T08:01:51.008Z,0.98
2019-04-04T08:06:58.742Z,1.07
2019-04-04T08:12:07.409Z,1.10
2019-04-04T08:17:18.745Z,1.04
2019-04-04T08:22:24.386Z,1.13
2019-04-04T08:27:33.198Z,0.57
2019-04-04T08:32:41.854Z,1.33
2019-04-04T08:37:50.653Z,0.49
2019-04-04T08:42:59.302Z,1.50
2019-04-04T08:48:08.153Z,1.04
2019-04-04T08:53:16.821Z,0.62
2019-04-04T08:58:25.742Z,1.27
2019-04-04T09:03:34.430Z,0.82
2019-04-04T09:08:43.342Z,0.98
2019-04-04T09:13:52.048Z,0.99
2019-04-04T09:19:00.897Z,1.33
2019-04-04T09:24:09.533Z,0.89
2019-04-04T09:29:18.387Z,1.48
2019-04-04T09:34:27.054Z,0.99
2019-04-04T09:39:36.214Z,1.06
2019-04-04T09:44:44.980Z,1.15
2019-04-04T09:49:53.870Z,1.07
2019-04-04T09:55:02.548Z,1.04
2019-04-04T10:00:11.428Z,1.17
2019-04-04T10:05:20.110Z,0.85
2019-04-04T10:10:29.414Z,1.16
2019-04-04T10:15:37.226Z,0.94
2019-04-04T10:21:52.107Z,1.29
2019-04-04T10:27:00.894Z,1.41
2019-04-04T10:32:09.701Z,1.81
2019-04-04T10:37:18.349Z,1.22
2019-04-04T10:42:27.146Z,1.51
2019-04-04T10:47:35.846Z,1.27
2019-04-04T10:52:44.649Z,1.13
2019-04-04T10:57:53.347Z,0.70
2019-04-04T11:03:02.226Z,1.48
2019-04-04T11:08:10.885Z,0.95
2019-04-04T11:13:32.485Z,1.40
2019-04-04T11:18:27.945Z,1.35
2019-04-04T11:23:36.776Z,1.41
2019-04-04T11:28:45.732Z,1.11
2019-04-04T11:33:54.590Z,1.02
2019-04-04T11:39:03.273Z,1.39
2019-04-04T11:44:12.156Z,1.14
2019-04-04T11:49:20.845Z,1.20
2019-04-04T11:54:29.657Z,0.91
2019-04-04T11:59:38.342Z,3.04
2019-04-04T12:04:47.134Z,1.52
2019-04-04T12:10:06.803Z,1.34
2019-04-04T12:15:04.213Z,1.23
2019-04-04T12:20:12.892Z,2.16
2019-04-04T12:25:21.747Z,2.13
2019-04-04T12:30:30.398Z,1.00
2019-04-04T12:35:39.233Z,1.25
2019-04-04T12:40:47.898Z,2.09
2019-04-04T12:45:56.712Z,0.58
2019-04-04T12:51:05.460Z,0.76
2019-04-04T12:56:14.307Z,1.39
2019-04-04T13:01:22.995Z,1.41
2019-04-04T13:06:31.801Z,0.92
2019-04-04T13:11:40.476Z,1.93
2019-04-04T13:16:49.262Z,1.54
2019-04-04T13:21:57.934Z,2.17
2019-04-04T13:27:06.726Z,1.36
2019-04-04T13:32:15.409Z,1.23
2019-04-04T13:37:24.265Z,1.91
2019-04-04T13:42:32.917Z,0.69
2019-04-04T13:47:41.743Z,1.62
2019-04-04T13:52:50.402Z,1.15
2019-04-04T13:57:59.194Z,1.31
2019-04-04T14:03:07.890Z,0.88
2019-04-04T14:08:16.778Z,2.13
2019-04-04T14:13:26.273Z,1.27
2019-04-04T14:18:39.767Z,1.66
2019-04-04T14:23:45.033Z,1.03
2019-04-04T14:28:50.373Z,0.86
2019-04-04T14:33:59.042Z,0.56
2019-04-04T14:39:07.833Z,1.10
2019-04-04T14:44:16.506Z,2.69
2019-04-04T14:49:25.329Z,1.66
2019-04-04T14:54:34.009Z,1.51
2019-04-04T14:59:42.877Z,1.24
2019-04-04T15:04:51.885Z,1.85
2019-04-04T15:10:01.105Z,0.84
2019-04-04T15:15:09.756Z,1.38
2019-04-04T15:20:18.610Z,1.28
2019-04-04T15:25:27.681Z,1.37
2019-04-04T15:30:36.486Z,0.94
2019-04-04T15:35:45.455Z,1.56
2019-04-04T15:40:54.289Z,0.88
2019-04-04T15:46:02.956Z,1.41
2019-04-04T15:51:12.023Z,0.87
2019-04-04T15:56:20.811Z,0.96
2019-04-04T16:01:29.589Z,0.73
2019-04-04T16:06:38.266Z,1.08
2019-04-04T16:11:49.737Z,1.18
2019-04-04T16:16:55.338Z,1.82
2019-04-04T16:22:04.230Z,1.03
2019-04-04T16:27:12.898Z,1.41
2019-04-04T16:32:21.799Z,1.47
2019-04-04T16:37:30.457Z,1.91
2019-04-04T16:42:39.248Z,1.66
2019-04-04T16:47:48.227Z,1.81
2019-04-04T16:52:57.071Z,1.25
2019-04-04T16:58:05.754Z,1.72
2019-04-04T17:03:14.733Z,1.02
2019-04-04T17:08:23.402Z,1.28
2019-04-04T17:13:32.302Z,0.93
2019-04-04T17:18:41.099Z,0.98
2019-04-04T17:23:49.902Z,1.20
2019-04-04T17:28:58.580Z,0.63
2019-04-04T17:34:07.635Z,0.48
2019-04-04T17:39:16.177Z,1.78
2019-04-04T17:44:25.055Z,1.25
2019-04-04T17:49:34.000Z,1.21
2019-04-04T17:54:42.047Z,1.59
2019-04-04T17:59:50.747Z,1.01
2019-04-04T18:04:59.702Z,0.91
2019-04-04T18:10:08.382Z,0.37
2019-04-04T18:15:17.218Z,0.80
2019-04-04T18:20:25.899Z,0.43
2019-04-04T18:25:34.746Z,0.53
2019-04-04T18:30:44.529Z,0.92
2019-04-04T18:36:59.362Z,1.78
2019-04-04T18:42:08.042Z,1.07
2019-04-04T18:47:16.917Z,0.36
2019-04-04T18:52:25.610Z,0.59
2019-04-04T18:57:34.482Z,1.14
2019-04-04T19:02:43.224Z,1.08
2019-04-04T19:07:52.020Z,0.82
2019-04-04T19:13:05.665Z,0.34
2019-04-04T19:18:09.068Z,1.11
2019-04-04T19:23:17.716Z,1.49
2019-04-04T19:28:26.489Z,0.89
2019-04-04T19:33:35.173Z,0.67
2019-04-04T19:38:43.971Z,1.48
2019-04-04T19:43:52.672Z,0.67
2019-04-04T19:49:01.466Z,0.99
2019-04-04T19:54:10.182Z,0.97
2019-04-04T19:59:19.058Z,0.65
2019-04-04T20:04:27.763Z,0.59
2019-04-04T20:09:36.645Z,0.06
2019-04-04T20:14:45.358Z,0.18
2019-04-04T20:19:54.225Z,0.99
2019-04-04T20:25:02.925Z,0.73
2019-04-04T20:30:14.121Z,0.48
2019-04-04T20:35:20.321Z,0.22
2019-04-04T20:40:29.121Z,0.68
2019-04-04T20:45:37.795Z,0.24
2019-04-04T20:50:46.698Z,0.51
2019-04-04T20:55:55.350Z,1.03
2019-04-04T21:01:04.482Z,0.77
2019-04-04T21:06:13.225Z,0.85
2019-04-04T21:11:22.065Z,0.89
2019-04-04T21:16:31.137Z,0.63
2019-04-04T21:21:39.937Z,0.66
2019-04-04T21:26:48.657Z,0.22
2019-04-04T21:31:57.449Z,1.20
2019-04-04T21:37:06.114Z,0.34
2019-04-04T21:42:14.878Z,1.10
2019-04-04T21:47:23.578Z,0.08
2019-04-04T21:52:32.531Z,0.13
2019-04-04T21:57:41.298Z,0.23
2019-04-04T22:02:50.131Z,0.31
2019-04-04T22:07:58.792Z,0.36
2019-04-04T22:13:07.554Z,0.29
2019-04-04T22:18:16.246Z,0.93
2019-04-04T22:23:25.150Z,0.85
2019-04-04T22:28:33.850Z,0.51
2019-04-04T22:33:42.722Z,0.08
2019-04-04T22:38:51.396Z,0.52
2019-04-04T22:44:03.619Z,0.54
2019-04-04T22:49:08.350Z,0.32
2019-04-04T22:54:17.165Z,0.28
2019-04-04T22:59:25.853Z,0.06
2019-04-04T23:04:34.634Z,0.88
2019-04-04T23:09:43.369Z,0.30
2019-04-04T23:14:52.617Z,0.04
2019-04-04T23:20:01.286Z,0.06
2019-04-04T23:25:10.134Z,0.06
2019-04-04T23:30:18.833Z,0.23
2019-04-04T23:35:27.860Z,0.78
2019-04-04T23:40:36.534Z,1.16
2019-04-04T23:45:45.366Z,1.39
2019-04-04T23:50:54.101Z,1.45
2019-04-04T23:56:02.869Z,0.61
